sensor_id;sensor_type;location;lat;lon;timestamp;P1;durP1;ratioP1;P2;durP2;ratioP2
52962;SDS011;38827;53.024;6.596;2023-05-23T00:01:02;42.80;;;24.45;;
52962;SDS011;38827;53.024;6.596;2023-05-23T00:03:30;48.42;;;24.95;;
52962;SDS011;38827;53.024;6.596;2023-05-23T00:05:57;53.50;;;23.90;;
52962;SDS011;38827;53.024;6.596;2023-05-23T00:08:23;42.20;;;22.70;;
52962;SDS011;38827;53.024;6.596;2023-05-23T00:10:49;51.63;;;26.17;;
52962;SDS011;38827;53.024;6.596;2023-05-23T00:13:15;49.42;;;25.65;;
52962;SDS011;38827;53.024;6.596;2023-05-23T00:15:41;47.23;;;23.93;;
52962;SDS011;38827;53.024;6.596;2023-05-23T00:18:08;41.35;;;22.15;;
52962;SDS011;38827;53.024;6.596;2023-05-23T00:20:37;40.55;;;21.08;;
52962;SDS011;38827;53.024;6.596;2023-05-23T00:23:07;30.90;;;19.23;;
52962;SDS011;38827;53.024;6.596;2023-05-23T00:25:34;35.22;;;19.60;;
52962;SDS011;38827;53.024;6.596;2023-05-23T00:28:01;28.38;;;18.42;;
52962;SDS011;38827;53.024;6.596;2023-05-23T00:30:28;32.53;;;18.90;;
52962;SDS011;38827;53.024;6.596;2023-05-23T00:32:55;30.75;;;17.30;;
52962;SDS011;38827;53.024;6.596;2023-05-23T00:35:21;31.77;;;18.50;;
52962;SDS011;38827;53.024;6.596;2023-05-23T00:37:50;30.17;;;18.73;;
52962;SDS011;38827;53.024;6.596;2023-05-23T00:40:16;25.83;;;16.48;;
52962;SDS011;38827;53.024;6.596;2023-05-23T00:42:42;25.88;;;16.30;;
52962;SDS011;38827;53.024;6.596;2023-05-23T00:45:09;31.45;;;17.30;;
52962;SDS011;38827;53.024;6.596;2023-05-23T00:50:09;26.27;;;15.77;;
52962;SDS011;38827;53.024;6.596;2023-05-23T00:52:40;29.67;;;15.23;;
52962;SDS011;38827;53.024;6.596;2023-05-23T00:55:07;26.60;;;15.10;;
52962;SDS011;38827;53.024;6.596;2023-05-23T00:57:34;30.27;;;15.15;;
52962;SDS011;38827;53.024;6.596;2023-05-23T01:00:04;25.38;;;14.43;;
52962;SDS011;38827;53.024;6.596;2023-05-23T01:02:34;26.85;;;15.57;;
52962;SDS011;38827;53.024;6.596;2023-05-23T01:05:11;29.42;;;17.38;;
52962;SDS011;38827;53.024;6.596;2023-05-23T01:07:45;29.98;;;17.55;;
52962;SDS011;38827;53.024;6.596;2023-05-23T01:10:14;33.08;;;18.17;;
52962;SDS011;38827;53.024;6.596;2023-05-23T01:15:17;28.80;;;17.50;;
52962;SDS011;38827;53.024;6.596;2023-05-23T01:17:58;24.30;;;15.93;;
52962;SDS011;38827;53.024;6.596;2023-05-23T01:20:34;24.95;;;15.77;;
52962;SDS011;38827;53.024;6.596;2023-05-23T01:28:56;21.77;;;12.05;;
52962;SDS011;38827;53.024;6.596;2023-05-23T01:31:32;20.33;;;12.43;;
52962;SDS011;38827;53.024;6.596;2023-05-23T01:34:01;21.92;;;11.70;;
52962;SDS011;38827;53.024;6.596;2023-05-23T01:36:27;20.15;;;12.20;;
52962;SDS011;38827;53.024;6.596;2023-05-23T01:38:53;24.23;;;11.20;;
52962;SDS011;38827;53.024;6.596;2023-05-23T01:41:19;16.05;;;9.65;;
52962;SDS011;38827;53.024;6.596;2023-05-23T01:43:44;19.10;;;9.80;;
52962;SDS011;38827;53.024;6.596;2023-05-23T01:46:11;20.17;;;10.15;;
52962;SDS011;38827;53.024;6.596;2023-05-23T01:48:38;16.67;;;9.95;;
52962;SDS011;38827;53.024;6.596;2023-05-23T01:51:04;17.92;;;9.75;;
52962;SDS011;38827;53.024;6.596;2023-05-23T01:53:31;21.33;;;9.52;;
52962;SDS011;38827;53.024;6.596;2023-05-23T01:55:58;22.63;;;10.20;;
52962;SDS011;38827;53.024;6.596;2023-05-23T01:58:27;24.15;;;10.27;;
52962;SDS011;38827;53.024;6.596;2023-05-23T02:00:54;34.13;;;11.35;;
52962;SDS011;38827;53.024;6.596;2023-05-23T02:03:23;24.75;;;10.48;;
52962;SDS011;38827;53.024;6.596;2023-05-23T02:05:49;32.15;;;11.30;;
52962;SDS011;38827;53.024;6.596;2023-05-23T02:08:15;34.28;;;12.90;;
52962;SDS011;38827;53.024;6.596;2023-05-23T02:10:41;37.58;;;13.57;;
52962;SDS011;38827;53.024;6.596;2023-05-23T02:13:07;27.35;;;11.88;;
52962;SDS011;38827;53.024;6.596;2023-05-23T02:15:32;33.22;;;12.30;;
52962;SDS011;38827;53.024;6.596;2023-05-23T02:17:58;31.35;;;12.82;;
52962;SDS011;38827;53.024;6.596;2023-05-23T02:20:24;32.70;;;12.93;;
52962;SDS011;38827;53.024;6.596;2023-05-23T02:22:50;30.10;;;12.75;;
52962;SDS011;38827;53.024;6.596;2023-05-23T02:25:15;30.95;;;12.20;;
52962;SDS011;38827;53.024;6.596;2023-05-23T02:27:41;31.50;;;11.85;;
52962;SDS011;38827;53.024;6.596;2023-05-23T02:30:07;33.80;;;12.10;;
52962;SDS011;38827;53.024;6.596;2023-05-23T02:32:33;31.92;;;11.88;;
52962;SDS011;38827;53.024;6.596;2023-05-23T02:34:59;26.73;;;11.45;;
52962;SDS011;38827;53.024;6.596;2023-05-23T02:37:25;31.10;;;12.18;;
52962;SDS011;38827;53.024;6.596;2023-05-23T02:39:51;28.08;;;11.43;;
52962;SDS011;38827;53.024;6.596;2023-05-23T02:42:17;22.45;;;10.25;;
52962;SDS011;38827;53.024;6.596;2023-05-23T02:44:42;28.58;;;10.82;;
52962;SDS011;38827;53.024;6.596;2023-05-23T02:47:08;19.23;;;9.10;;
52962;SDS011;38827;53.024;6.596;2023-05-23T02:49:34;25.08;;;9.93;;
52962;SDS011;38827;53.024;6.596;2023-05-23T02:52:00;21.23;;;9.23;;
52962;SDS011;38827;53.024;6.596;2023-05-23T02:54:26;25.25;;;8.75;;
52962;SDS011;38827;53.024;6.596;2023-05-23T02:56:51;24.75;;;9.15;;
52962;SDS011;38827;53.024;6.596;2023-05-23T02:59:19;26.83;;;9.75;;
52962;SDS011;38827;53.024;6.596;2023-05-23T03:01:49;31.65;;;10.18;;
52962;SDS011;38827;53.024;6.596;2023-05-23T03:04:17;24.90;;;9.05;;
52962;SDS011;38827;53.024;6.596;2023-05-23T03:06:43;29.17;;;9.13;;
52962;SDS011;38827;53.024;6.596;2023-05-23T03:09:09;25.35;;;9.13;;
52962;SDS011;38827;53.024;6.596;2023-05-23T03:11:36;21.85;;;7.88;;
52962;SDS011;38827;53.024;6.596;2023-05-23T03:24:27;27.17;;;9.18;;
52962;SDS011;38827;53.024;6.596;2023-05-23T03:26:56;24.17;;;8.43;;
52962;SDS011;38827;53.024;6.596;2023-05-23T03:32:06;21.65;;;8.75;;
52962;SDS011;38827;53.024;6.596;2023-05-23T03:34:31;27.13;;;9.82;;
52962;SDS011;38827;53.024;6.596;2023-05-23T03:36:58;24.77;;;8.70;;
52962;SDS011;38827;53.024;6.596;2023-05-23T03:39:24;23.08;;;9.68;;
52962;SDS011;38827;53.024;6.596;2023-05-23T03:41:49;27.02;;;9.23;;
52962;SDS011;38827;53.024;6.596;2023-05-23T03:44:15;27.40;;;9.40;;
52962;SDS011;38827;53.024;6.596;2023-05-23T03:46:41;22.27;;;8.30;;
52962;SDS011;38827;53.024;6.596;2023-05-23T03:49:06;25.10;;;8.27;;
52962;SDS011;38827;53.024;6.596;2023-05-23T03:51:32;29.63;;;8.82;;
52962;SDS011;38827;53.024;6.596;2023-05-23T03:53:58;18.80;;;7.68;;
52962;SDS011;38827;53.024;6.596;2023-05-23T03:56:24;24.95;;;7.47;;
52962;SDS011;38827;53.024;6.596;2023-05-23T03:58:50;19.30;;;7.57;;
52962;SDS011;38827;53.024;6.596;2023-05-23T04:01:19;21.17;;;7.70;;
52962;SDS011;38827;53.024;6.596;2023-05-23T04:03:44;21.70;;;7.78;;
52962;SDS011;38827;53.024;6.596;2023-05-23T04:06:13;19.05;;;8.30;;
52962;SDS011;38827;53.024;6.596;2023-05-23T04:08:41;20.90;;;7.07;;
52962;SDS011;38827;53.024;6.596;2023-05-23T04:11:07;23.33;;;7.25;;
52962;SDS011;38827;53.024;6.596;2023-05-23T04:13:33;22.77;;;6.95;;
52962;SDS011;38827;53.024;6.596;2023-05-23T04:15:59;16.90;;;6.43;;
52962;SDS011;38827;53.024;6.596;2023-05-23T04:18:30;23.05;;;6.70;;
52962;SDS011;38827;53.024;6.596;2023-05-23T04:21:00;23.83;;;6.72;;
52962;SDS011;38827;53.024;6.596;2023-05-23T04:23:25;20.38;;;6.78;;
52962;SDS011;38827;53.024;6.596;2023-05-23T04:38:47;17.35;;;5.93;;
52962;SDS011;38827;53.024;6.596;2023-05-23T04:41:12;16.30;;;6.13;;
52962;SDS011;38827;53.024;6.596;2023-05-23T04:43:40;16.88;;;5.88;;
52962;SDS011;38827;53.024;6.596;2023-05-23T04:46:10;18.27;;;6.38;;
52962;SDS011;38827;53.024;6.596;2023-05-23T04:48:37;19.70;;;6.55;;
52962;SDS011;38827;53.024;6.596;2023-05-23T04:51:03;21.02;;;5.63;;
52962;SDS011;38827;53.024;6.596;2023-05-23T04:53:33;20.52;;;5.07;;
52962;SDS011;38827;53.024;6.596;2023-05-23T04:55:59;18.05;;;5.43;;
52962;SDS011;38827;53.024;6.596;2023-05-23T04:58:24;18.95;;;5.70;;
52962;SDS011;38827;53.024;6.596;2023-05-23T05:00:53;21.85;;;5.63;;
52962;SDS011;38827;53.024;6.596;2023-05-23T05:03:22;22.77;;;6.10;;
52962;SDS011;38827;53.024;6.596;2023-05-23T05:05:49;16.30;;;4.88;;
52962;SDS011;38827;53.024;6.596;2023-05-23T05:08:14;16.95;;;5.10;;
52962;SDS011;38827;53.024;6.596;2023-05-23T05:10:46;19.15;;;5.60;;
52962;SDS011;38827;53.024;6.596;2023-05-23T05:13:15;21.75;;;7.03;;
52962;SDS011;38827;53.024;6.596;2023-05-23T05:18:07;30.35;;;9.02;;
52962;SDS011;38827;53.024;6.596;2023-05-23T05:23:42;28.88;;;9.73;;
52962;SDS011;38827;53.024;6.596;2023-05-23T05:26:08;25.50;;;8.73;;
52962;SDS011;38827;53.024;6.596;2023-05-23T05:28:44;28.10;;;9.43;;
52962;SDS011;38827;53.024;6.596;2023-05-23T05:31:09;29.67;;;9.30;;
52962;SDS011;38827;53.024;6.596;2023-05-23T05:33:39;27.17;;;9.23;;
52962;SDS011;38827;53.024;6.596;2023-05-23T05:36:05;26.92;;;8.48;;
52962;SDS011;38827;53.024;6.596;2023-05-23T05:38:35;26.45;;;8.60;;
52962;SDS011;38827;53.024;6.596;2023-05-23T05:41:00;21.77;;;8.00;;
52962;SDS011;38827;53.024;6.596;2023-05-23T05:43:26;22.35;;;7.88;;
52962;SDS011;38827;53.024;6.596;2023-05-23T05:45:52;18.88;;;6.70;;
52962;SDS011;38827;53.024;6.596;2023-05-23T05:48:17;19.33;;;7.10;;
52962;SDS011;38827;53.024;6.596;2023-05-23T05:50:43;17.00;;;6.53;;
52962;SDS011;38827;53.024;6.596;2023-05-23T05:53:12;18.27;;;6.83;;
52962;SDS011;38827;53.024;6.596;2023-05-23T05:55:38;21.02;;;7.03;;
52962;SDS011;38827;53.024;6.596;2023-05-23T05:58:04;18.80;;;6.68;;
52962;SDS011;38827;53.024;6.596;2023-05-23T06:00:30;19.70;;;6.63;;
52962;SDS011;38827;53.024;6.596;2023-05-23T06:02:56;23.20;;;6.63;;
52962;SDS011;38827;53.024;6.596;2023-05-23T06:05:22;17.73;;;6.38;;
52962;SDS011;38827;53.024;6.596;2023-05-23T06:07:48;19.40;;;6.10;;
52962;SDS011;38827;53.024;6.596;2023-05-23T06:10:15;18.87;;;6.93;;
52962;SDS011;38827;53.024;6.596;2023-05-23T06:12:41;18.38;;;6.38;;
52962;SDS011;38827;53.024;6.596;2023-05-23T06:15:08;16.15;;;5.90;;
52962;SDS011;38827;53.024;6.596;2023-05-23T06:17:34;18.27;;;6.60;;
52962;SDS011;38827;53.024;6.596;2023-05-23T06:20:00;16.48;;;5.93;;
52962;SDS011;38827;53.024;6.596;2023-05-23T06:22:29;17.55;;;6.85;;
52962;SDS011;38827;53.024;6.596;2023-05-23T06:24:54;21.02;;;6.07;;
52962;SDS011;38827;53.024;6.596;2023-05-23T06:27:21;19.50;;;5.75;;
52962;SDS011;38827;53.024;6.596;2023-05-23T06:29:47;13.13;;;4.90;;
52962;SDS011;38827;53.024;6.596;2023-05-23T06:32:12;14.00;;;4.93;;
52962;SDS011;38827;53.024;6.596;2023-05-23T06:34:38;14.88;;;4.43;;
52962;SDS011;38827;53.024;6.596;2023-05-23T06:37:04;11.85;;;4.68;;
52962;SDS011;38827;53.024;6.596;2023-05-23T06:39:30;13.52;;;4.28;;
52962;SDS011;38827;53.024;6.596;2023-05-23T06:41:55;14.60;;;4.20;;
52962;SDS011;38827;53.024;6.596;2023-05-23T06:44:21;14.75;;;4.05;;
52962;SDS011;38827;53.024;6.596;2023-05-23T06:46:47;19.05;;;4.70;;
52962;SDS011;38827;53.024;6.596;2023-05-23T06:49:13;18.60;;;3.78;;
52962;SDS011;38827;53.024;6.596;2023-05-23T06:51:40;11.63;;;3.97;;
52962;SDS011;38827;53.024;6.596;2023-05-23T06:54:06;14.60;;;3.70;;
52962;SDS011;38827;53.024;6.596;2023-05-23T06:56:31;15.70;;;3.53;;
52962;SDS011;38827;53.024;6.596;2023-05-23T07:04:17;21.73;;;3.80;;
52962;SDS011;38827;53.024;6.596;2023-05-23T07:06:57;18.35;;;3.38;;
52962;SDS011;38827;53.024;6.596;2023-05-23T07:09:22;18.42;;;4.18;;
52962;SDS011;38827;53.024;6.596;2023-05-23T07:14:15;15.70;;;3.57;;
52962;SDS011;38827;53.024;6.596;2023-05-23T07:16:41;26.77;;;5.68;;
52962;SDS011;38827;53.024;6.596;2023-05-23T07:19:07;16.75;;;4.07;;
52962;SDS011;38827;53.024;6.596;2023-05-23T07:21:37;21.52;;;4.28;;
52962;SDS011;38827;53.024;6.596;2023-05-23T07:24:02;20.73;;;4.78;;
52962;SDS011;38827;53.024;6.596;2023-05-23T07:26:31;15.70;;;3.88;;
52962;SDS011;38827;53.024;6.596;2023-05-23T07:28:58;19.02;;;4.47;;
52962;SDS011;38827;53.024;6.596;2023-05-23T07:31:23;19.55;;;3.85;;
52962;SDS011;38827;53.024;6.596;2023-05-23T07:33:52;24.90;;;4.47;;
52962;SDS011;38827;53.024;6.596;2023-05-23T07:36:18;22.40;;;4.30;;
52962;SDS011;38827;53.024;6.596;2023-05-23T07:38:46;20.38;;;3.63;;
52962;SDS011;38827;53.024;6.596;2023-05-23T07:41:12;19.65;;;3.90;;
52962;SDS011;38827;53.024;6.596;2023-05-23T07:43:37;22.35;;;3.65;;
52962;SDS011;38827;53.024;6.596;2023-05-23T07:46:04;22.73;;;4.60;;
52962;SDS011;38827;53.024;6.596;2023-05-23T07:48:38;21.33;;;3.67;;
52962;SDS011;38827;53.024;6.596;2023-05-23T07:51:04;17.55;;;3.22;;
52962;SDS011;38827;53.024;6.596;2023-05-23T07:53:33;25.17;;;3.72;;
52962;SDS011;38827;53.024;6.596;2023-05-23T07:55:59;21.00;;;3.78;;
52962;SDS011;38827;53.024;6.596;2023-05-23T07:58:25;24.15;;;4.57;;
52962;SDS011;38827;53.024;6.596;2023-05-23T08:00:51;23.00;;;3.80;;
52962;SDS011;38827;53.024;6.596;2023-05-23T08:03:16;19.92;;;4.10;;
52962;SDS011;38827;53.024;6.596;2023-05-23T08:05:43;20.07;;;4.40;;
52962;SDS011;38827;53.024;6.596;2023-05-23T08:08:08;16.65;;;4.10;;
52962;SDS011;38827;53.024;6.596;2023-05-23T08:10:34;19.02;;;3.70;;
52962;SDS011;38827;53.024;6.596;2023-05-23T08:13:03;18.08;;;3.67;;
52962;SDS011;38827;53.024;6.596;2023-05-23T08:15:32;18.00;;;3.25;;
52962;SDS011;38827;53.024;6.596;2023-05-23T08:17:58;17.35;;;3.83;;
52962;SDS011;38827;53.024;6.596;2023-05-23T08:20:24;20.15;;;3.58;;
52962;SDS011;38827;53.024;6.596;2023-05-23T08:23:02;14.85;;;4.18;;
52962;SDS011;38827;53.024;6.596;2023-05-23T08:25:29;16.95;;;3.75;;
52962;SDS011;38827;53.024;6.596;2023-05-23T08:27:57;18.53;;;3.43;;
52962;SDS011;38827;53.024;6.596;2023-05-23T08:30:25;16.95;;;4.30;;
52962;SDS011;38827;53.024;6.596;2023-05-23T08:32:54;17.55;;;3.50;;
52962;SDS011;38827;53.024;6.596;2023-05-23T08:35:24;17.20;;;3.75;;
52962;SDS011;38827;53.024;6.596;2023-05-23T08:37:56;15.25;;;3.28;;
52962;SDS011;38827;53.024;6.596;2023-05-23T08:40:22;14.65;;;3.50;;
52962;SDS011;38827;53.024;6.596;2023-05-23T08:42:50;20.13;;;3.33;;
52962;SDS011;38827;53.024;6.596;2023-05-23T08:45:16;14.45;;;3.33;;
52962;SDS011;38827;53.024;6.596;2023-05-23T08:47:43;11.82;;;3.17;;
52962;SDS011;38827;53.024;6.596;2023-05-23T08:52:46;15.18;;;3.58;;
52962;SDS011;38827;53.024;6.596;2023-05-23T08:55:20;19.27;;;3.63;;
52962;SDS011;38827;53.024;6.596;2023-05-23T08:57:57;18.83;;;3.88;;
52962;SDS011;38827;53.024;6.596;2023-05-23T09:00:24;21.45;;;3.78;;
52962;SDS011;38827;53.024;6.596;2023-05-23T09:02:51;16.77;;;3.75;;
52962;SDS011;38827;53.024;6.596;2023-05-23T09:05:17;18.05;;;3.47;;
52962;SDS011;38827;53.024;6.596;2023-05-23T09:07:46;18.38;;;4.03;;
52962;SDS011;38827;53.024;6.596;2023-05-23T09:10:13;15.18;;;3.30;;
52962;SDS011;38827;53.024;6.596;2023-05-23T09:12:44;14.02;;;3.50;;
52962;SDS011;38827;53.024;6.596;2023-05-23T09:15:11;18.02;;;4.05;;
52962;SDS011;38827;53.024;6.596;2023-05-23T09:17:37;18.85;;;3.47;;
52962;SDS011;38827;53.024;6.596;2023-05-23T09:20:23;17.52;;;3.55;;
52962;SDS011;38827;53.024;6.596;2023-05-23T09:22:53;15.20;;;3.50;;
52962;SDS011;38827;53.024;6.596;2023-05-23T09:25:21;16.58;;;3.50;;
52962;SDS011;38827;53.024;6.596;2023-05-23T09:30:22;14.25;;;3.10;;
52962;SDS011;38827;53.024;6.596;2023-05-23T09:35:44;12.52;;;3.25;;
52962;SDS011;38827;53.024;6.596;2023-05-23T09:38:10;15.73;;;4.07;;
52962;SDS011;38827;53.024;6.596;2023-05-23T09:40:43;17.42;;;3.72;;
52962;SDS011;38827;53.024;6.596;2023-05-23T09:43:09;14.15;;;3.13;;
52962;SDS011;38827;53.024;6.596;2023-05-23T09:45:35;13.70;;;2.90;;
52962;SDS011;38827;53.024;6.596;2023-05-23T09:48:01;16.55;;;3.15;;
52962;SDS011;38827;53.024;6.596;2023-05-23T09:50:30;18.15;;;3.85;;
52962;SDS011;38827;53.024;6.596;2023-05-23T09:52:57;16.38;;;3.40;;
52962;SDS011;38827;53.024;6.596;2023-05-23T09:55:24;17.35;;;3.58;;
52962;SDS011;38827;53.024;6.596;2023-05-23T09:57:51;16.25;;;3.22;;
52962;SDS011;38827;53.024;6.596;2023-05-23T10:00:20;15.35;;;3.58;;
52962;SDS011;38827;53.024;6.596;2023-05-23T10:03:21;24.05;;;3.35;;
52962;SDS011;38827;53.024;6.596;2023-05-23T10:05:48;16.75;;;3.97;;
52962;SDS011;38827;53.024;6.596;2023-05-23T10:08:23;16.65;;;3.22;;
52962;SDS011;38827;53.024;6.596;2023-05-23T10:13:26;12.55;;;2.65;;
52962;SDS011;38827;53.024;6.596;2023-05-23T10:15:59;21.15;;;3.63;;
52962;SDS011;38827;53.024;6.596;2023-05-23T10:18:31;19.75;;;3.88;;
52962;SDS011;38827;53.024;6.596;2023-05-23T10:21:11;15.95;;;3.20;;
52962;SDS011;38827;53.024;6.596;2023-05-23T10:23:39;12.23;;;3.00;;
52962;SDS011;38827;53.024;6.596;2023-05-23T10:28:32;14.27;;;3.20;;
52962;SDS011;38827;53.024;6.596;2023-05-23T10:30:58;11.95;;;3.08;;
52962;SDS011;38827;53.024;6.596;2023-05-23T10:33:25;9.48;;;2.63;;
52962;SDS011;38827;53.024;6.596;2023-05-23T10:36:13;15.57;;;3.22;;
52962;SDS011;38827;53.024;6.596;2023-05-23T10:39:24;12.68;;;2.53;;
52962;SDS011;38827;53.024;6.596;2023-05-23T10:42:03;15.68;;;2.92;;
52962;SDS011;38827;53.024;6.596;2023-05-23T10:44:38;11.88;;;2.85;;
52962;SDS011;38827;53.024;6.596;2023-05-23T10:47:04;14.30;;;3.38;;
52962;SDS011;38827;53.024;6.596;2023-05-23T10:49:47;10.00;;;3.03;;
52962;SDS011;38827;53.024;6.596;2023-05-23T10:52:16;11.73;;;2.80;;
52962;SDS011;38827;53.024;6.596;2023-05-23T10:54:43;13.83;;;3.00;;
52962;SDS011;38827;53.024;6.596;2023-05-23T10:57:35;13.70;;;2.80;;
52962;SDS011;38827;53.024;6.596;2023-05-23T11:00:00;14.25;;;3.53;;
52962;SDS011;38827;53.024;6.596;2023-05-23T11:02:26;11.63;;;2.67;;
52962;SDS011;38827;53.024;6.596;2023-05-23T11:16:23;9.93;;;2.65;;
52962;SDS011;38827;53.024;6.596;2023-05-23T11:18:49;9.13;;;2.50;;
52962;SDS011;38827;53.024;6.596;2023-05-23T11:21:15;10.73;;;2.92;;
52962;SDS011;38827;53.024;6.596;2023-05-23T11:23:41;14.88;;;3.08;;
52962;SDS011;38827;53.024;6.596;2023-05-23T11:26:41;10.70;;;2.65;;
52962;SDS011;38827;53.024;6.596;2023-05-23T11:28:59;14.35;;;3.17;;
52962;SDS011;38827;53.024;6.596;2023-05-23T11:31:27;11.30;;;2.63;;
52962;SDS011;38827;53.024;6.596;2023-05-23T11:33:54;9.43;;;2.47;;
52962;SDS011;38827;53.024;6.596;2023-05-23T11:36:20;10.27;;;2.88;;
52962;SDS011;38827;53.024;6.596;2023-05-23T11:38:47;9.93;;;2.65;;
52962;SDS011;38827;53.024;6.596;2023-05-23T11:41:16;14.43;;;3.03;;
52962;SDS011;38827;53.024;6.596;2023-05-23T11:43:51;13.43;;;2.83;;
52962;SDS011;38827;53.024;6.596;2023-05-23T11:46:18;14.90;;;2.83;;
52962;SDS011;38827;53.024;6.596;2023-05-23T11:48:47;15.70;;;3.33;;
52962;SDS011;38827;53.024;6.596;2023-05-23T11:51:13;10.10;;;2.95;;
52962;SDS011;38827;53.024;6.596;2023-05-23T11:53:40;15.25;;;3.20;;
52962;SDS011;38827;53.024;6.596;2023-05-23T11:56:07;9.55;;;2.70;;
52962;SDS011;38827;53.024;6.596;2023-05-23T11:58:34;12.38;;;2.80;;
52962;SDS011;38827;53.024;6.596;2023-05-23T12:05:19;11.55;;;2.75;;
52962;SDS011;38827;53.024;6.596;2023-05-23T12:07:46;14.48;;;3.05;;
52962;SDS011;38827;53.024;6.596;2023-05-23T12:10:13;12.77;;;2.90;;
52962;SDS011;38827;53.024;6.596;2023-05-23T12:12:40;11.27;;;2.70;;
52962;SDS011;38827;53.024;6.596;2023-05-23T12:15:07;9.60;;;2.30;;
52962;SDS011;38827;53.024;6.596;2023-05-23T12:17:35;11.75;;;2.65;;
52962;SDS011;38827;53.024;6.596;2023-05-23T12:20:08;12.93;;;3.05;;
52962;SDS011;38827;53.024;6.596;2023-05-23T12:22:36;14.20;;;3.42;;
52962;SDS011;38827;53.024;6.596;2023-05-23T12:25:01;11.45;;;2.50;;
52962;SDS011;38827;53.024;6.596;2023-05-23T12:30:09;11.52;;;2.53;;
52962;SDS011;38827;53.024;6.596;2023-05-23T12:32:44;10.75;;;2.55;;
52962;SDS011;38827;53.024;6.596;2023-05-23T12:35:12;11.82;;;2.88;;
52962;SDS011;38827;53.024;6.596;2023-05-23T12:37:45;9.07;;;2.28;;
52962;SDS011;38827;53.024;6.596;2023-05-23T12:40:11;8.45;;;2.25;;
52962;SDS011;38827;53.024;6.596;2023-05-23T12:42:56;11.13;;;2.20;;
52962;SDS011;38827;53.024;6.596;2023-05-23T12:47:49;11.18;;;2.75;;
52962;SDS011;38827;53.024;6.596;2023-05-23T12:50:19;13.38;;;3.05;;
52962;SDS011;38827;53.024;6.596;2023-05-23T12:55:10;11.03;;;3.00;;
52962;SDS011;38827;53.024;6.596;2023-05-23T13:00:06;14.30;;;3.00;;
52962;SDS011;38827;53.024;6.596;2023-05-23T13:02:33;13.70;;;2.95;;
52962;SDS011;38827;53.024;6.596;2023-05-23T13:04:58;10.40;;;2.35;;
52962;SDS011;38827;53.024;6.596;2023-05-23T13:07:24;7.95;;;2.15;;
52962;SDS011;38827;53.024;6.596;2023-05-23T13:09:50;8.70;;;2.22;;
52962;SDS011;38827;53.024;6.596;2023-05-23T13:12:18;10.20;;;2.53;;
52962;SDS011;38827;53.024;6.596;2023-05-23T13:14:53;10.95;;;2.13;;
52962;SDS011;38827;53.024;6.596;2023-05-23T13:17:19;9.75;;;2.60;;
52962;SDS011;38827;53.024;6.596;2023-05-23T13:19:45;17.45;;;3.10;;
52962;SDS011;38827;53.024;6.596;2023-05-23T13:22:11;10.85;;;2.30;;
52962;SDS011;38827;53.024;6.596;2023-05-23T13:24:45;13.07;;;2.63;;
52962;SDS011;38827;53.024;6.596;2023-05-23T13:27:20;13.63;;;2.50;;
52962;SDS011;38827;53.024;6.596;2023-05-23T13:29:46;11.32;;;2.40;;
52962;SDS011;38827;53.024;6.596;2023-05-23T13:32:22;11.30;;;2.72;;
52962;SDS011;38827;53.024;6.596;2023-05-23T13:37:55;13.93;;;2.38;;
52962;SDS011;38827;53.024;6.596;2023-05-23T13:46:51;11.55;;;2.10;;
52962;SDS011;38827;53.024;6.596;2023-05-23T13:49:46;8.93;;;1.92;;
52962;SDS011;38827;53.024;6.596;2023-05-23T13:54:47;10.00;;;1.98;;
52962;SDS011;38827;53.024;6.596;2023-05-23T13:57:13;7.43;;;2.03;;
52962;SDS011;38827;53.024;6.596;2023-05-23T13:59:48;7.93;;;2.60;;
52962;SDS011;38827;53.024;6.596;2023-05-23T14:02:14;13.10;;;2.50;;
52962;SDS011;38827;53.024;6.596;2023-05-23T14:07:20;8.88;;;2.20;;
52962;SDS011;38827;53.024;6.596;2023-05-23T14:09:52;11.82;;;2.30;;
52962;SDS011;38827;53.024;6.596;2023-05-23T14:12:18;11.55;;;3.05;;
52962;SDS011;38827;53.024;6.596;2023-05-23T14:14:53;11.38;;;2.72;;
52962;SDS011;38827;53.024;6.596;2023-05-23T14:17:18;8.13;;;2.33;;
52962;SDS011;38827;53.024;6.596;2023-05-23T14:19:44;9.75;;;2.65;;
52962;SDS011;38827;53.024;6.596;2023-05-23T14:24:37;12.23;;;2.80;;
52962;SDS011;38827;53.024;6.596;2023-05-23T14:29:38;12.10;;;2.70;;
52962;SDS011;38827;53.024;6.596;2023-05-23T14:32:05;9.52;;;2.22;;
52962;SDS011;38827;53.024;6.596;2023-05-23T14:34:31;10.65;;;2.53;;
52962;SDS011;38827;53.024;6.596;2023-05-23T14:36:59;12.73;;;2.80;;
52962;SDS011;38827;53.024;6.596;2023-05-23T14:39:25;12.07;;;2.80;;
52962;SDS011;38827;53.024;6.596;2023-05-23T14:41:53;12.70;;;2.33;;
52962;SDS011;38827;53.024;6.596;2023-05-23T14:44:19;12.77;;;2.45;;
52962;SDS011;38827;53.024;6.596;2023-05-23T14:46:44;12.30;;;2.40;;
52962;SDS011;38827;53.024;6.596;2023-05-23T14:49:16;13.23;;;3.13;;
52962;SDS011;38827;53.024;6.596;2023-05-23T14:51:42;10.63;;;2.20;;
52962;SDS011;38827;53.024;6.596;2023-05-23T14:54:08;10.13;;;2.45;;
52962;SDS011;38827;53.024;6.596;2023-05-23T14:56:34;10.20;;;2.50;;
52962;SDS011;38827;53.024;6.596;2023-05-23T14:59:08;17.25;;;2.38;;
52962;SDS011;38827;53.024;6.596;2023-05-23T15:01:34;10.70;;;2.30;;
52962;SDS011;38827;53.024;6.596;2023-05-23T15:03:59;10.23;;;2.17;;
52962;SDS011;38827;53.024;6.596;2023-05-23T15:06:25;12.85;;;2.45;;
52962;SDS011;38827;53.024;6.596;2023-05-23T15:08:51;13.50;;;2.38;;
52962;SDS011;38827;53.024;6.596;2023-05-23T15:11:17;10.52;;;2.25;;
52962;SDS011;38827;53.024;6.596;2023-05-23T15:13:43;9.15;;;2.10;;
52962;SDS011;38827;53.024;6.596;2023-05-23T15:16:08;19.80;;;5.50;;
52962;SDS011;38827;53.024;6.596;2023-05-23T15:18:34;13.68;;;2.95;;
52962;SDS011;38827;53.024;6.596;2023-05-23T15:21:03;9.70;;;3.10;;
52962;SDS011;38827;53.024;6.596;2023-05-23T15:23:32;12.07;;;2.88;;
52962;SDS011;38827;53.024;6.596;2023-05-23T15:25:57;9.27;;;2.30;;
52962;SDS011;38827;53.024;6.596;2023-05-23T15:28:23;12.73;;;2.70;;
52962;SDS011;38827;53.024;6.596;2023-05-23T15:30:49;13.38;;;2.20;;
52962;SDS011;38827;53.024;6.596;2023-05-23T15:33:15;11.57;;;2.20;;
52962;SDS011;38827;53.024;6.596;2023-05-23T15:35:41;10.35;;;1.95;;
52962;SDS011;38827;53.024;6.596;2023-05-23T15:38:06;11.05;;;2.00;;
52962;SDS011;38827;53.024;6.596;2023-05-23T15:40:32;11.27;;;2.60;;
52962;SDS011;38827;53.024;6.596;2023-05-23T15:42:58;14.20;;;2.47;;
52962;SDS011;38827;53.024;6.596;2023-05-23T15:45:23;13.82;;;2.45;;
52962;SDS011;38827;53.024;6.596;2023-05-23T15:47:49;12.45;;;2.45;;
52962;SDS011;38827;53.024;6.596;2023-05-23T15:58:44;11.88;;;2.50;;
52962;SDS011;38827;53.024;6.596;2023-05-23T16:04:19;11.17;;;2.33;;
52962;SDS011;38827;53.024;6.596;2023-05-23T16:06:45;13.07;;;2.20;;
52962;SDS011;38827;53.024;6.596;2023-05-23T16:09:13;11.05;;;2.38;;
52962;SDS011;38827;53.024;6.596;2023-05-23T16:11:45;10.40;;;2.10;;
52962;SDS011;38827;53.024;6.596;2023-05-23T16:14:11;11.25;;;2.47;;
52962;SDS011;38827;53.024;6.596;2023-05-23T16:16:37;10.10;;;2.20;;
52962;SDS011;38827;53.024;6.596;2023-05-23T16:19:10;10.45;;;2.30;;
52962;SDS011;38827;53.024;6.596;2023-05-23T16:21:44;11.65;;;2.53;;
52962;SDS011;38827;53.024;6.596;2023-05-23T16:24:25;13.20;;;2.40;;
52962;SDS011;38827;53.024;6.596;2023-05-23T16:27:07;14.00;;;2.40;;
52962;SDS011;38827;53.024;6.596;2023-05-23T16:29:32;13.25;;;2.78;;
52962;SDS011;38827;53.024;6.596;2023-05-23T16:31:58;7.30;;;2.05;;
52962;SDS011;38827;53.024;6.596;2023-05-23T16:34:27;9.88;;;1.90;;
52962;SDS011;38827;53.024;6.596;2023-05-23T16:36:53;13.20;;;2.00;;
52962;SDS011;38827;53.024;6.596;2023-05-23T16:39:28;10.50;;;2.88;;